createdAt,value
2023-03-23T15:59:01.249Z,13.46
2023-03-23T16:03:07.077Z,13.54
2023-03-23T16:07:13.870Z,13.39
2023-03-23T16:11:19.707Z,13.48
2023-03-23T16:15:22.867Z,13.40
2023-03-23T16:19:25.724Z,13.40
2023-03-23T16:23:28.515Z,13.40
2023-03-23T16:27:32.862Z,13.30
2023-03-23T16:31:35.755Z,13.34
2023-03-23T16:35:38.789Z,13.24
2023-03-23T16:39:41.491Z,13.19
2023-03-23T16:43:45.918Z,13.11
2023-03-23T16:47:48.702Z,13.03
2023-03-23T16:51:52.369Z,13.00
2023-03-23T16:55:55.300Z,13.07
2023-03-23T17:00:02.290Z,12.76
2023-03-23T17:04:05.456Z,12.93
2023-03-23T17:08:08.362Z,12.97
2023-03-23T17:12:11.547Z,12.97
2023-03-23T17:16:15.975Z,12.96
2023-03-23T17:20:18.964Z,12.86
2023-03-23T17:24:21.668Z,12.78
2023-03-23T17:28:24.661Z,12.83
2023-03-23T17:32:29.193Z,12.75
2023-03-23T17:36:31.978Z,12.69
2023-03-23T17:40:34.992Z,12.65
2023-03-23T17:44:37.788Z,12.58
2023-03-23T17:48:42.057Z,12.39
2023-03-23T17:52:45.094Z,12.33
2023-03-23T17:56:47.913Z,12.25
2023-03-23T18:00:50.854Z,12.22
2023-03-23T18:04:58.234Z,12.00
2023-03-23T18:09:01.302Z,11.94
2023-03-23T18:13:04.724Z,11.80
2023-03-23T18:17:07.638Z,11.72
2023-03-23T18:21:12.289Z,11.83
2023-03-23T18:25:15.409Z,11.82
2023-03-23T18:29:18.507Z,12.01
2023-03-23T18:33:22.754Z,12.06
2023-03-23T18:37:27.080Z,11.94
2023-03-23T18:41:29.967Z,12.07
2023-03-23T18:45:34.046Z,12.15
2023-03-23T18:49:36.769Z,12.01
2023-03-23T18:53:41.476Z,11.81
2023-03-23T18:57:44.582Z,11.87
2023-03-23T19:01:50.015Z,11.89
2023-03-23T19:05:53.202Z,11.96
2023-03-23T19:09:57.492Z,11.87
2023-03-23T19:14:03.099Z,11.89
2023-03-23T19:18:07.055Z,11.86
2023-03-23T19:22:10.027Z,11.78
2023-03-23T19:26:21.505Z,11.75
2023-03-23T19:30:24.199Z,11.54
2023-03-23T19:34:28.184Z,11.31
2023-03-23T19:38:30.938Z,11.17
2023-03-23T19:42:35.533Z,11.00
2023-03-23T19:46:38.545Z,11.03
2023-03-23T19:50:41.694Z,11.00
2023-03-23T19:54:45.352Z,10.97
2023-03-23T19:58:51.087Z,11.26
2023-03-23T20:02:54.202Z,11.07
2023-03-23T20:06:59.309Z,10.89
2023-03-23T20:11:06.342Z,10.89
2023-03-23T20:15:11.832Z,11.04
2023-03-23T20:19:14.607Z,11.15
2023-03-23T20:23:17.477Z,10.98
2023-03-23T20:27:20.508Z,10.81
2023-03-23T20:31:26.834Z,10.93
2023-03-23T20:35:30.490Z,10.96
2023-03-23T20:39:34.445Z,11.03
2023-03-23T20:43:37.259Z,10.75
2023-03-23T20:47:42.350Z,10.82
2023-03-23T20:51:46.580Z,10.90
2023-03-23T20:55:49.553Z,10.76
2023-03-23T20:59:53.350Z,10.86
2023-03-23T21:03:58.036Z,10.74
2023-03-23T21:08:02.041Z,10.64
2023-03-23T21:12:06.218Z,10.69
2023-03-23T21:16:09.047Z,10.82
2023-03-23T21:20:13.527Z,10.49
2023-03-23T21:24:16.528Z,10.45
2023-03-23T21:28:19.607Z,10.42
2023-03-23T21:32:22.335Z,10.59
2023-03-23T21:36:27.425Z,10.70
2023-03-23T21:40:30.548Z,10.55
2023-03-23T21:44:34.816Z,10.67
2023-03-23T21:48:38.624Z,10.24
2023-03-23T21:52:43.375Z,10.49
2023-03-23T21:56:46.133Z,10.27
2023-03-23T22:00:50.150Z,10.20
2023-03-23T22:04:55.961Z,10.32
2023-03-23T22:09:00.356Z,10.50
2023-03-23T22:13:02.996Z,10.54
2023-03-23T22:17:05.794Z,10.68
2023-03-23T22:21:08.832Z,10.47
2023-03-23T22:25:13.708Z,10.35
2023-03-23T22:29:17.164Z,10.25
2023-03-23T22:33:19.977Z,10.37
2023-03-23T22:37:22.674Z,10.45
2023-03-23T22:41:29.256Z,10.37
2023-03-23T22:45:32.743Z,10.23
2023-03-23T22:49:35.997Z,10.40
2023-03-23T22:53:38.791Z,10.22
2023-03-23T22:57:42.894Z,9.96
2023-03-23T23:01:45.619Z,10.23
2023-03-23T23:05:51.216Z,10.02
2023-03-23T23:09:53.909Z,10.03
2023-03-23T23:13:58.103Z,10.22
2023-03-23T23:18:01.072Z,10.06
2023-03-23T23:22:17.908Z,10.14
2023-03-23T23:26:22.428Z,10.13
2023-03-23T23:30:26.682Z,10.11
2023-03-23T23:34:29.647Z,10.11
2023-03-23T23:38:32.330Z,9.87
2023-03-23T23:42:35.012Z,10.09
2023-03-23T23:46:39.599Z,9.99
2023-03-23T23:50:42.401Z,10.16
2023-03-23T23:54:47.470Z,10.01
2023-03-23T23:58:50.204Z,10.13
